Time;durP1;ratioP1;P1;durP2;ratioP2;P2;SDS_P1;SDS_P2;PMS_P1;PMS_P2;Temp;Humidity;BMP_temperature;BMP_pressure;BME280_temperature;BME280_humidity;BME280_pressure;Samples;Min_cycle;Max_cycle;Signal;HPM_P1;HPM_P2
2023/02/23 00:01:29;;;;;;;8.65;3.88;;;;;;;6.86;76.11;101078.66;5007158;28;20110;-86
2023/02/23 00:03:56;;;;;;;11.05;3.58;;;;;;;6.70;77.64;101072.88;5006141;28;20050;-87
2023/02/23 00:06:26;;;;;;;12.13;3.60;;;;;;;6.74;77.41;101080.53;4957042;28;20052;-85
2023/02/23 00:08:52;;;;;;;7.70;3.30;;;;;;;6.76;77.72;101067.84;4995109;28;20054;-87
2023/02/23 00:11:20;;;;;;;7.20;3.00;;;;;;;6.80;77.26;101068.47;4968163;28;20498;-87
2023/02/23 00:13:48;;;;;;;9.48;3.33;;;;;;;6.72;77.87;101055.75;4970480;28;20120;-88
2023/02/23 00:16:15;;;;;;;8.90;3.28;;;;;;;6.78;77.88;101070.41;4987744;28;20037;-89
2023/02/23 00:18:52;;;;;;;10.73;3.75;;;;;;;6.80;77.42;101063.13;4970545;28;20366;-87
2023/02/23 00:21:33;;;;;;;9.45;3.78;;;;;;;6.83;77.48;101070.03;5002608;28;20045;-88
2023/02/23 00:24:07;;;;;;;9.38;3.25;;;;;;;6.82;77.87;101071.88;4977179;28;20109;-87
2023/02/23 00:26:34;;;;;;;8.55;3.67;;;;;;;6.75;78.24;101066.19;4990585;28;20054;-85
2023/02/23 00:29:17;;;;;;;13.63;3.80;;;;;;;6.68;78.64;101048.94;4978426;28;20513;-87
2023/02/23 00:31:45;;;;;;;9.63;4.38;;;;;;;6.78;78.49;101065.06;4965893;28;20046;-87
2023/02/23 00:34:13;;;;;;;16.23;5.72;;;;;;;6.84;78.20;101077.94;4981354;28;20113;-89
2023/02/23 00:36:42;;;;;;;9.98;3.40;;;;;;;6.72;79.07;101076.28;4973305;28;20118;-87
2023/02/23 00:39:20;;;;;;;9.20;3.72;;;;;;;6.73;79.01;101062.78;5017873;28;20158;-88
2023/02/23 00:41:48;;;;;;;9.55;3.30;;;;;;;6.80;79.13;101064.97;5011079;28;20041;-87
2023/02/23 00:44:15;;;;;;;8.85;3.22;;;;;;;6.70;79.25;101057.69;5001658;28;20068;-87
2023/02/23 00:46:42;;;;;;;11.27;3.45;;;;;;;6.58;79.66;101047.16;4987112;28;20477;-89
2023/02/23 00:49:10;;;;;;;10.52;3.47;;;;;;;6.65;79.98;101045.66;4975158;28;20049;-88
2023/02/23 00:51:36;;;;;;;9.00;3.10;;;;;;;6.72;80.09;101060.25;5012216;28;20041;-87
2023/02/23 00:54:01;;;;;;;9.02;3.20;;;;;;;6.75;80.27;101054.66;4986221;28;20030;-86
2023/02/23 00:56:30;;;;;;;8.35;3.33;;;;;;;6.74;80.56;101053.81;4982570;28;20264;-89
2023/02/23 00:58:57;;;;;;;10.95;3.60;;;;;;;6.72;80.54;101045.06;4966773;28;20137;-87
2023/02/23 01:01:22;;;;;;;9.95;3.70;;;;;;;6.72;80.47;101038.88;4977267;28;20046;-89
2023/02/23 01:03:49;;;;;;;8.82;3.58;;;;;;;6.76;80.88;101061.66;4977219;28;20167;-86
2023/02/23 01:06:15;;;;;;;11.50;3.45;;;;;;;6.75;81.22;101058.16;5007569;28;20046;-87
2023/02/23 01:08:45;;;;;;;9.00;3.10;;;;;;;6.82;81.10;101061.19;5002404;28;20041;-87
2023/02/23 01:11:13;;;;;;;8.10;3.05;;;;;;;6.77;81.28;101036.66;5007346;28;20034;-87
2023/02/23 01:13:41;;;;;;;8.20;3.35;;;;;;;6.82;81.36;101053.16;4990479;28;20107;-87
2023/02/23 01:16:08;;;;;;;7.57;3.53;;;;;;;6.79;81.35;101050.75;5007695;28;20121;-85
2023/02/23 01:18:35;;;;;;;10.50;3.58;;;;;;;6.84;81.45;101051.22;4967875;28;20387;-86
2023/02/23 01:21:04;;;;;;;9.68;3.58;;;;;;;6.82;81.02;101041.63;4988256;28;20041;-86
2023/02/23 01:23:29;;;;;;;8.07;3.58;;;;;;;6.85;81.39;101039.53;4984995;28;20041;-87
2023/02/23 01:25:55;;;;;;;10.15;3.70;;;;;;;6.68;81.19;101013.38;5003202;28;20415;-87
2023/02/23 01:28:22;;;;;;;9.13;3.50;;;;;;;6.80;81.29;101030.22;4993220;28;20041;-86
2023/02/23 01:30:49;;;;;;;10.00;3.92;;;;;;;6.72;81.85;101026.34;4981745;28;20324;-87
2023/02/23 01:33:15;;;;;;;9.23;3.42;;;;;;;6.84;81.90;101037.84;5022808;28;20060;-88
2023/02/23 01:35:40;;;;;;;8.60;3.67;;;;;;;6.73;82.24;101025.38;4991995;28;20463;-86
2023/02/23 01:38:06;;;;;;;11.98;3.47;;;;;;;6.64;82.26;101011.91;5009415;28;20498;-85
2023/02/23 01:40:31;;;;;;;7.20;3.50;;;;;;;6.65;82.34;101022.50;4973187;28;20104;-85
2023/02/23 01:43:14;;;;;;;9.90;3.42;;;;;;;6.72;82.45;101038.88;4989667;28;20042;-86
2023/02/23 01:45:41;;;;;;;11.60;3.88;;;;;;;6.59;82.90;101014.13;5001492;28;20200;-83
2023/02/23 01:48:12;;;;;;;9.77;3.78;;;;;;;6.68;82.65;101024.91;5006673;28;20100;-89
2023/02/23 01:51:02;;;;;;;11.80;3.40;;;;;;;6.71;83.21;101031.81;4987694;28;20132;-84
2023/02/23 01:53:35;;;;;;;11.20;3.50;;;;;;;6.65;83.70;101034.97;4990698;28;20130;-84
2023/02/23 01:56:10;;;;;;;9.70;3.55;;;;;;;6.57;84.15;101024.94;4977924;28;20121;-86
2023/02/23 01:58:44;;;;;;;13.70;3.88;;;;;;;6.54;84.31;101020.69;4982039;28;20034;-85
2023/02/23 02:01:10;;;;;;;9.02;3.40;;;;;;;6.56;84.43;101028.59;5002646;28;20038;-85
2023/02/23 02:03:38;;;;;;;8.55;3.55;;;;;;;6.57;85.18;101037.44;5003521;28;20040;-86
2023/02/23 02:06:06;;;;;;;11.98;3.85;;;;;;;6.58;85.17;101041.81;4975791;28;20042;-83
2023/02/23 02:08:31;;;;;;;6.70;3.15;;;;;;;6.60;85.44;101043.38;4970215;28;20116;-83
2023/02/23 02:10:57;;;;;;;11.40;3.42;;;;;;;6.58;85.64;101044.47;4975246;28;20072;-84
2023/02/23 02:13:29;;;;;;;8.07;3.67;;;;;;;6.55;85.46;101030.44;4957773;28;20096;-85
2023/02/23 02:16:41;;;;;;;10.93;3.88;;;;;;;6.65;85.42;101048.34;4975725;28;20293;-83
2023/02/23 02:19:21;;;;;;;7.13;3.35;;;;;;;6.69;85.35;101055.97;4988062;28;20042;-88
2023/02/23 02:22:03;;;;;;;9.90;3.53;;;;;;;6.70;85.59;101056.84;5008245;28;20033;-85
2023/02/23 02:24:42;;;;;;;11.07;3.40;;;;;;;6.68;85.49;101046.28;5010066;28;20041;-84
2023/02/23 02:27:29;;;;;;;12.75;3.50;;;;;;;6.58;85.38;101032.00;4976477;28;20132;-85
2023/02/23 02:30:16;;;;;;;12.40;3.97;;;;;;;6.65;85.90;101056.34;5010874;28;20034;-84
2023/02/23 02:33:03;;;;;;;6.93;3.70;;;;;;;6.77;85.41;101060.72;5004228;28;20042;-84
2023/02/23 02:35:37;;;;;;;8.23;3.28;;;;;;;6.83;84.70;101065.53;5000121;28;20042;-86
2023/02/23 02:38:20;;;;;;;8.00;3.50;;;;;;;6.86;84.83;101067.09;4993838;28;20048;-83
2023/02/23 02:41:11;;;;;;;13.25;3.33;;;;;;;6.92;84.77;101071.94;4992822;28;20474;-83
2023/02/23 02:43:45;;;;;;;12.98;3.58;;;;;;;6.82;84.51;101050.50;5011275;28;20439;-83
2023/02/23 02:46:28;;;;;;;10.25;2.95;;;;;;;6.80;84.35;101052.44;4992173;28;20474;-87
2023/02/23 02:49:12;;;;;;;7.53;3.15;;;;;;;6.88;84.29;101070.50;5007050;28;20052;-87
2023/02/23 02:51:48;;;;;;;8.63;3.15;;;;;;;6.91;84.12;101080.97;4987086;28;20100;-87
2023/02/23 02:54:30;;;;;;;8.15;3.03;;;;;;;6.91;83.93;101076.47;4985019;28;20038;-87
2023/02/23 02:56:57;;;;;;;8.35;3.00;;;;;;;6.89;83.63;101067.72;4989579;28;20366;-87
2023/02/23 04:19:09;;;;;;;8.67;3.50;;;;;;;6.91;83.93;101119.22;4971791;28;20463;-82
2023/02/23 04:21:36;;;;;;;10.35;3.67;;;;;;;6.94;83.75;101118.97;4990658;28;20026;-81
2023/02/23 04:24:02;;;;;;;9.15;3.80;;;;;;;6.88;83.85;101119.50;5008183;28;20049;-81
2023/02/23 04:26:28;;;;;;;8.40;3.40;;;;;;;6.93;83.80;101098.56;4985417;28;20136;-82
2023/02/23 04:28:53;;;;;;;11.82;3.95;;;;;;;6.95;83.91;101111.78;4984762;28;20046;-82
2023/02/23 04:31:19;;;;;;;12.80;3.70;;;;;;;6.86;83.98;101113.41;4997949;28;20052;-84
2023/02/23 04:33:45;;;;;;;10.70;3.55;;;;;;;7.02;83.67;101120.16;4995068;28;20304;-79
2023/02/23 04:36:12;;;;;;;10.57;3.67;;;;;;;6.95;83.70;101109.97;4990672;28;20045;-80
2023/02/23 04:38:37;;;;;;;10.55;3.25;;;;;;;6.95;84.05;101114.47;5011719;28;20415;-83
2023/02/23 04:41:03;;;;;;;8.65;3.42;;;;;;;6.94;84.03;101113.63;4992522;28;20136;-83
2023/02/23 04:43:30;;;;;;;10.07;3.72;;;;;;;6.91;84.32;101107.69;5008207;28;20042;-83
2023/02/23 04:45:57;;;;;;;8.75;3.40;;;;;;;6.85;84.44;101113.53;4970279;28;20109;-83
2023/02/23 04:48:25;;;;;;;8.68;3.50;;;;;;;6.95;84.06;101120.69;5005660;28;20037;-82
2023/02/23 04:50:53;;;;;;;10.55;3.50;;;;;;;7.01;83.74;101126.50;5004142;28;20037;-83
2023/02/23 04:53:19;;;;;;;11.85;4.15;;;;;;;7.01;83.63;101126.50;4973062;28;20464;-82
2023/02/23 04:55:44;;;;;;;9.73;3.70;;;;;;;6.92;83.80;101115.56;5003485;28;20031;-83
2023/02/23 04:58:14;;;;;;;10.70;3.53;;;;;;;6.92;83.26;101126.25;4958737;28;20414;-83
2023/02/23 05:00:40;;;;;;;10.38;3.75;;;;;;;7.03;83.42;101135.22;4985567;28;20292;-83
2023/02/23 05:03:07;;;;;;;11.43;4.25;;;;;;;7.09;82.91;101138.22;4978312;28;20093;-80
2023/02/23 05:05:32;;;;;;;9.00;3.72;;;;;;;7.08;83.03;101135.69;5006196;28;20046;-82
2023/02/23 05:07:59;;;;;;;14.48;4.30;;;;;;;7.00;83.24;101135.47;5007838;28;20034;-82
2023/02/23 05:10:26;;;;;;;12.65;4.05;;;;;;;7.01;83.18;101134.50;4991201;28;20030;-88
2023/02/23 05:12:51;;;;;;;9.70;3.78;;;;;;;7.07;83.30;101150.03;4991833;28;20080;-83
2023/02/23 05:15:18;;;;;;;11.55;4.82;;;;;;;7.10;83.20;101149.78;4956479;28;20391;-83
2023/02/23 05:17:43;;;;;;;;;;;;;;;7.14;83.08;101151.22;4990952;28;20041;-82
2023/02/23 05:20:10;;;;;;;9.93;3.55;;;;;;;7.10;83.34;101160.50;5015202;28;19975;-85
2023/02/23 05:22:38;;;;;;;12.00;4.75;;;;;;;7.11;83.26;101151.47;4971595;28;21027;-82
2023/02/23 05:25:07;;;;;;;9.77;4.50;;;;;;;7.22;83.12;101155.94;5008241;28;20058;-82
2023/02/23 05:27:36;;;;;;;9.30;3.67;;;;;;;7.25;82.74;101153.84;4979943;28;20536;-83
2023/02/23 05:30:02;;;;;;;7.68;3.58;;;;;;;7.35;82.61;101156.59;4990168;28;20550;-82
2023/02/23 05:32:29;;;;;;;;;;;;;;;7.35;82.75;101161.97;4993866;28;20049;-83
2023/02/23 05:34:55;;;;;;;9.88;3.50;;;;;;;7.21;83.20;101155.13;5011032;28;19924;-85
2023/02/23 05:37:20;;;;;;;9.65;3.92;;;;;;;7.32;83.14;101173.78;4989777;28;20174;-85
2023/02/23 05:39:46;;;;;;;14.00;4.43;;;;;;;7.40;82.33;101176.66;4978237;28;20038;-85
2023/02/23 05:42:12;;;;;;;;;;;;;;;7.48;81.72;101173.34;5006972;28;20061;-85
2023/02/23 05:44:40;;;;;;;8.15;3.45;;;;;;;7.36;82.09;101177.06;4993061;28;19918;-84
2023/02/23 05:47:10;;;;;;;9.88;3.58;;;;;;;7.35;81.99;101172.66;4988947;28;20054;-88
2023/02/23 05:49:36;;;;;;;10.10;3.50;;;;;;;7.36;81.84;101177.91;5013962;28;20034;-83
2023/02/23 05:52:02;;;;;;;10.93;3.47;;;;;;;7.51;81.40;101190.97;4992014;28;20034;-84
2023/02/23 05:54:28;;;;;;;9.57;3.30;;;;;;;7.54;81.20;101201.44;4994275;28;20498;-85
2023/02/23 05:56:54;;;;;;;11.85;3.65;;;;;;;7.64;81.01;101205.03;5008461;28;20078;-87
2023/02/23 05:59:19;;;;;;;12.02;3.60;;;;;;;7.60;80.90;101199.06;4979853;28;20033;-84
2023/02/23 06:01:45;;;;;;;8.38;3.70;;;;;;;7.68;79.96;101189.53;4973341;28;20080;-83
2023/02/23 06:04:12;;;;;;;12.60;4.20;;;;;;;7.95;79.73;101210.47;4963042;28;20034;-86
2023/02/23 06:06:39;;;;;;;10.40;3.45;;;;;;;7.95;79.16;101213.16;4982296;28;20054;-86
2023/02/23 06:09:06;;;;;;;9.07;3.22;;;;;;;7.97;78.79;101197.81;5011273;28;20050;-86
2023/02/23 06:11:31;;;;;;;7.55;3.20;;;;;;;8.15;78.39;101200.75;4990019;28;20076;-83
2023/02/23 06:13:59;;;;;;;9.00;3.08;;;;;;;8.15;78.09;101209.63;5005883;28;20475;-79
2023/02/23 06:16:29;;;;;;;10.00;3.30;;;;;;;8.45;76.47;101224.91;4951871;28;20043;-92
2023/02/23 06:18:55;;;;;;;8.63;2.97;;;;;;;8.25;75.84;101207.00;4998361;28;20038;-89
2023/02/23 06:21:23;;;;;;;7.68;3.22;;;;;;;8.39;75.91;101219.19;4975663;28;20116;-85
2023/02/23 06:23:49;;;;;;;9.35;3.25;;;;;;;8.60;75.60;101237.94;4995691;28;20041;-85
2023/02/23 06:26:15;;;;;;;7.10;2.88;;;;;;;8.41;75.32;101223.47;4992599;28;20079;-83
2023/02/23 06:28:50;;;;;;;9.57;3.17;;;;;;;9.17;73.74;101235.59;4979672;28;20053;-92
2023/02/23 06:31:15;;;;;;;9.48;3.20;;;;;;;9.35;72.09;101235.78;5009416;28;20423;-82
2023/02/23 06:33:41;;;;;;;10.45;3.17;;;;;;;9.13;72.67;101234.16;4993593;28;20084;-87
2023/02/23 06:36:09;;;;;;;9.63;3.40;;;;;;;8.95;72.98;101199.97;4980608;28;20045;-85
2023/02/23 06:38:36;;;;;;;10.10;2.90;;;;;;;8.92;72.82;101212.78;5012190;28;20049;-83
2023/02/23 06:41:09;;;;;;;8.65;3.20;;;;;;;9.04;73.27;101235.88;5015937;28;20501;-85
2023/02/23 06:43:37;;;;;;;10.32;3.40;;;;;;;9.12;72.58;101222.59;4994021;28;20054;-86
2023/02/23 06:46:07;;;;;;;7.03;3.08;;;;;;;9.19;72.31;101222.91;4986084;28;20037;-91
2023/02/23 06:48:34;;;;;;;10.52;3.53;;;;;;;9.34;72.26;101243.00;5011298;28;20077;-88
2023/02/23 06:51:06;;;;;;;8.90;3.20;;;;;;;9.13;71.40;101215.38;4992074;28;20042;-93
2023/02/23 06:53:42;;;;;;;6.25;3.20;;;;;;;9.32;71.53;101244.09;4999783;28;20045;-91
2023/02/23 06:56:12;;;;;;;9.15;3.30;;;;;;;9.25;71.94;101250.03;4993833;28;20050;-90
2023/02/23 06:58:43;;;;;;;7.35;3.15;;;;;;;9.13;71.90;101226.13;4990613;28;20061;-89
2023/02/23 07:01:37;;;;;;;10.52;3.50;;;;;;;8.99;72.32;101233.59;5000619;28;20042;-93
2023/02/23 07:04:04;;;;;;;9.55;3.22;;;;;;;9.07;72.69;101241.78;5013038;28;20049;-92
2023/02/23 07:06:31;;;;;;;9.50;2.97;;;;;;;9.14;71.92;101241.25;4987069;28;20045;-84
2023/02/23 07:08:59;;;;;;;10.05;3.00;;;;;;;9.22;71.62;101238.72;5023510;28;20156;-87
2023/02/23 07:11:40;;;;;;;7.80;3.25;;;;;;;9.23;72.12;101245.78;4974163;28;20041;-89
2023/02/23 07:14:18;;;;;;;16.05;3.70;;;;;;;9.32;72.02;101260.19;5001339;28;20069;-89
2023/02/23 07:16:52;;;;;;;8.98;3.35;;;;;;;9.44;70.92;101248.38;5005620;28;20042;-89
2023/02/23 07:19:22;;;;;;;6.68;2.80;;;;;;;9.55;70.73;101272.38;5007275;28;20072;-84
2023/02/23 07:21:48;;;;;;;10.15;3.20;;;;;;;9.56;71.21;101278.63;5025363;28;20042;-84
2023/02/23 07:24:14;;;;;;;7.90;3.00;;;;;;;9.68;70.50;101274.81;5025133;28;20092;-85
2023/02/23 07:26:45;;;;;;;9.68;2.88;;;;;;;9.76;70.29;101287.53;4993603;28;20049;-85
2023/02/23 07:29:11;;;;;;;9.68;2.55;;;;;;;9.32;70.95;101263.75;4961423;28;20108;-86
2023/02/23 07:31:39;;;;;;;6.60;2.40;;;;;;;9.37;70.93;101272.22;4992962;28;20051;-86
2023/02/23 07:34:05;;;;;;;6.68;2.75;;;;;;;9.35;71.31;101266.16;4980718;28;20042;-85
2023/02/23 07:36:32;;;;;;;9.52;3.17;;;;;;;9.42;71.65;101283.38;4970688;28;20136;-84
2023/02/23 07:38:58;;;;;;;6.95;3.03;;;;;;;9.45;71.48;101287.63;4990949;28;20395;-86
2023/02/23 07:41:23;;;;;;;;;;;;;;;9.52;71.60;101286.09;4994712;28;20042;-85
2023/02/23 07:43:50;;;;;;;15.63;3.55;;;;;;;9.56;70.94;101278.63;5003291;28;19917;-86
2023/02/23 07:46:20;;;;;;;16.67;2.63;;;;;;;9.32;71.85;101260.19;5003760;28;20049;-84
2023/02/23 07:48:46;;;;;;;10.52;2.90;;;;;;;9.35;71.91;101254.56;5002582;28;20054;-84
2023/02/23 07:51:14;;;;;;;7.88;2.83;;;;;;;9.07;72.35;101239.09;5002051;28;20109;-84
2023/02/23 07:53:40;;;;;;;10.25;2.92;;;;;;;9.21;72.09;101253.97;4989760;28;20102;-84
2023/02/23 07:56:09;;;;;;;9.13;3.03;;;;;;;9.33;72.12;101264.59;4978486;28;20449;-85
2023/02/23 07:58:40;;;;;;;14.27;3.83;;;;;;;9.68;71.65;101301.66;4990824;28;20045;-85
2023/02/23 08:01:06;;;;;;;8.90;3.28;;;;;;;9.84;70.68;101299.28;4963036;28;20200;-85
2023/02/23 08:03:35;;;;;;;9.43;3.22;;;;;;;10.00;70.45;101301.41;4958421;28;20062;-84
2023/02/23 08:06:01;;;;;;;14.93;3.25;;;;;;;10.19;69.51;101300.53;4962688;28;20409;-85
2023/02/23 08:08:28;;;;;;;8.25;2.83;;;;;;;10.13;68.95;101290.34;4995744;28;20089;-85
2023/02/23 08:11:02;;;;;;;6.93;2.47;;;;;;;10.46;67.81;101296.28;4992789;28;20031;-85
2023/02/23 08:13:31;;;;;;;8.93;2.08;;;;;;;10.60;66.89;101311.94;4964137;28;20038;-85
2023/02/23 08:15:57;;;;;;;8.52;2.65;;;;;;;10.91;65.94;101295.56;4999365;28;20110;-84
2023/02/23 08:18:23;;;;;;;6.82;2.78;;;;;;;11.41;64.31;101317.56;4992683;28;20042;-85
2023/02/23 08:20:48;;;;;;;9.30;2.70;;;;;;;11.26;63.67;101302.94;4982037;28;20030;-84
2023/02/23 08:23:16;;;;;;;8.68;2.47;;;;;;;11.09;64.16;101306.41;4998482;28;20478;-86
2023/02/23 08:25:42;;;;;;;12.20;2.67;;;;;;;10.84;65.32;101314.16;4981465;28;20029;-85
2023/02/23 08:28:08;;;;;;;8.40;2.90;;;;;;;10.43;65.98;101299.25;4991757;28;20042;-85
2023/02/23 08:30:35;;;;;;;6.07;2.60;;;;;;;10.73;65.56;101311.66;5004830;28;20073;-85
2023/02/23 08:33:01;;;;;;;6.88;2.50;;;;;;;11.56;63.22;101325.16;4997284;28;20029;-86
2023/02/23 08:35:28;;;;;;;;;;;;;;;11.34;62.64;101339.88;4998811;28;20030;-85
2023/02/23 08:37:56;;;;;;;8.52;2.65;;;;;;;11.52;61.25;101335.38;4985959;28;20039;-84
2023/02/23 08:40:25;;;;;;;7.68;2.78;;;;;;;12.18;58.42;101336.09;4995609;28;20037;-84
2023/02/23 08:42:51;;;;;;;8.85;2.40;;;;;;;12.17;57.08;101310.13;4985604;28;20035;-84
2023/02/23 08:45:17;;;;;;;7.70;2.53;;;;;;;12.39;57.02;101347.38;4979921;28;20030;-85
2023/02/23 08:47:44;;;;;;;;;;;;;;;12.39;57.23;101344.69;4977486;28;20074;-84
2023/02/23 08:50:14;;;;;;;7.07;2.17;;;;;;;12.18;57.47;101346.88;4997195;28;20328;-84
2023/02/23 08:52:40;;;;;;;8.02;2.70;;;;;;;12.23;57.91;101345.38;5005785;28;20041;-84
2023/02/23 08:55:06;;;;;;;;;;;;;;;11.65;59.58;101342.25;4979224;28;20030;-84
2023/02/23 08:57:35;;;;;;;11.57;3.30;;;;;;;11.50;60.50;101340.06;4974404;28;19928;-86
2023/02/23 09:00:04;;;;;;;6.63;2.60;;;;;;;11.64;60.48;101351.34;4994816;28;20135;-84
2023/02/23 09:02:30;;;;;;;7.72;3.28;;;;;;;11.61;60.64;101350.66;5006255;28;20049;-83
2023/02/23 09:04:57;;;;;;;8.55;2.30;;;;;;;11.68;60.45;101350.03;4977850;28;20025;-84
2023/02/23 09:07:24;;;;;;;8.27;2.75;;;;;;;11.90;59.81;101352.31;5005928;28;20505;-84
2023/02/23 09:09:57;;;;;;;8.27;2.63;;;;;;;11.36;60.76;101341.41;4994663;28;20033;-86
2023/02/23 09:12:23;;;;;;;5.93;3.28;;;;;;;11.73;60.13;101358.50;4991133;28;20038;-84
2023/02/23 09:14:50;;;;;;;6.50;2.75;;;;;;;11.71;59.92;101360.50;4989879;28;20164;-85
2023/02/23 09:17:17;;;;;;;7.05;2.90;;;;;;;11.97;58.82;101344.47;5003047;28;20102;-84
2023/02/23 09:19:44;;;;;;;7.05;2.50;;;;;;;12.20;58.58;101371.81;4999726;28;20037;-84
2023/02/23 09:22:13;;;;;;;6.30;2.55;;;;;;;11.89;59.33;101366.78;4990644;28;20030;-85
2023/02/23 09:24:38;;;;;;;6.65;2.15;;;;;;;12.12;58.87;101353.72;4974187;28;20138;-85
2023/02/23 09:27:06;;;;;;;;;;;;;;;14.21;53.76;101374.22;4995119;28;20097;-85
2023/02/23 09:29:35;;;;;;;7.25;2.25;;;;;;;13.87;53.10;101386.00;5000886;28;20039;-83
2023/02/23 09:32:02;;;;;;;8.15;2.78;;;;;;;14.30;52.97;101365.13;4994993;28;20053;-84
2023/02/23 09:34:29;;;;;;;9.98;2.40;;;;;;;16.61;47.32;101364.06;4980301;28;20035;-84
2023/02/23 09:36:57;;;;;;;5.82;2.25;;;;;;;16.33;47.01;101361.06;4975153;28;20052;-85
2023/02/23 09:39:23;;;;;;;5.10;1.95;;;;;;;16.88;45.51;101376.22;4989037;28;20045;-84
2023/02/23 09:41:51;;;;;;;;;;;;;;;16.67;45.49;101385.03;4990741;28;20128;-84
2023/02/23 09:44:34;;;;;;;9.02;1.90;;;;;;;16.18;45.82;101375.41;5006134;28;19909;-85
2023/02/23 09:47:04;;;;;;;8.45;1.95;;;;;;;15.76;46.51;101384.00;4991956;28;20037;-85
2023/02/23 09:49:32;;;;;;;5.70;2.13;;;;;;;14.27;49.55;101355.47;4992009;28;20032;-85
2023/02/23 09:51:59;;;;;;;7.13;2.20;;;;;;;13.56;51.81;101369.53;4970254;28;20065;-84
2023/02/23 09:55:02;;;;;;;7.40;2.42;;;;;;;13.33;52.86;101362.00;4991545;28;20449;-84
2023/02/23 09:57:40;;;;;;;7.55;2.20;;;;;;;12.70;55.21;101384.72;5004194;28;20391;-84
2023/02/23 10:00:22;;;;;;;7.53;2.03;;;;;;;12.02;57.66;101359.19;4976521;28;20058;-85
2023/02/23 10:03:19;;;;;;;7.80;2.28;;;;;;;12.54;57.15;101373.78;5001530;28;20027;-85
2023/02/23 10:06:00;;;;;;;7.00;2.08;;;;;;;12.10;58.13;101385.34;5008343;28;20082;-85
2023/02/23 10:08:54;;;;;;;6.63;2.42;;;;;;;12.48;57.79;101401.38;4989485;28;20034;-84
2023/02/23 10:11:29;;;;;;;6.43;2.20;;;;;;;12.28;57.92;101384.53;4990360;28;20045;-84
2023/02/23 10:14:30;;;;;;;6.28;2.35;;;;;;;11.74;59.58;101404.13;4984712;28;20069;-84
2023/02/23 10:17:14;;;;;;;8.73;2.08;;;;;;;11.49;60.86;101404.84;4978080;28;20434;-85
2023/02/23 10:20:31;;;;;;;7.00;2.55;;;;;;;11.76;60.30;101409.38;4999509;28;20026;-86
2023/02/23 10:22:57;;;;;;;6.15;2.42;;;;;;;11.50;60.76;101385.84;4965666;28;20446;-85
2023/02/23 10:25:25;;;;;;;7.40;2.10;;;;;;;11.59;60.86;101413.75;4979281;28;20502;-86
2023/02/23 10:27:54;;;;;;;9.80;2.15;;;;;;;11.40;60.97;101410.13;4976874;28;20042;-85
2023/02/23 10:30:30;;;;;;;6.80;2.47;;;;;;;11.44;60.67;101385.59;5013728;28;20033;-85
2023/02/23 10:33:02;;;;;;;;;;;;;;;11.26;61.14;101407.06;5009643;28;20039;-85
2023/02/23 10:35:30;;;;;;;5.47;2.47;;;;;;;11.22;61.16;101384.13;5013207;28;19921;-86
2023/02/23 10:37:57;;;;;;;8.10;2.72;;;;;;;11.11;61.73;101386.00;5012123;28;20042;-85
2023/02/23 10:40:27;;;;;;;8.18;2.70;;;;;;;11.23;61.18;101388.50;4978995;28;20516;-85
2023/02/23 10:42:54;;;;;;;6.22;2.35;;;;;;;11.24;60.98;101406.34;4977237;28;20034;-87
2023/02/23 10:45:22;;;;;;;6.07;2.38;;;;;;;11.03;61.33;101377.81;4979132;28;20531;-85
2023/02/23 10:48:04;;;;;;;5.35;2.35;;;;;;;11.18;61.29;101410.47;4992565;28;20133;-88
2023/02/23 10:50:30;;;;;;;7.03;2.50;;;;;;;11.01;62.05;101404.03;4980203;28;20462;-88
2023/02/23 10:53:04;;;;;;;8.02;2.70;;;;;;;10.63;62.93;101397.72;4995740;28;20111;-84
2023/02/23 10:55:32;;;;;;;4.75;2.33;;;;;;;10.55;63.05;101378.75;4996923;28;20143;-85
2023/02/23 10:58:18;;;;;;;11.38;3.33;;;;;;;10.62;63.15;101396.00;4985638;28;20045;-87
2023/02/23 11:00:56;;;;;;;6.57;2.67;;;;;;;10.62;62.91;101390.63;4989936;28;20034;-88
2023/02/23 11:03:36;;;;;;;6.95;2.75;;;;;;;10.83;62.86;101409.28;4991515;28;20120;-90
2023/02/23 11:06:02;;;;;;;7.28;2.50;;;;;;;10.65;62.62;101384.13;4975982;28;20125;-86
2023/02/23 11:08:34;;;;;;;7.30;2.70;;;;;;;10.65;62.56;101401.13;4990751;28;20035;-82
2023/02/23 11:11:04;;;;;;;5.68;2.40;;;;;;;10.74;62.42;101394.84;4990942;28;20041;-84
2023/02/23 11:13:45;;;;;;;6.65;2.60;;;;;;;10.81;62.37;101407.75;5009416;28;20038;-86
2023/02/23 11:16:29;;;;;;;13.27;3.03;;;;;;;10.88;61.71;101390.03;5286507;23;20115;-87
2023/02/23 11:19:00;;;;;;;11.40;3.00;;;;;;;11.12;61.08;101394.91;4961930;28;20597;-82
2023/02/23 11:21:35;;;;;;;10.98;2.90;;;;;;;11.24;61.37;101409.03;4992316;28;20030;-82
2023/02/23 11:24:41;;;;;;;9.55;2.53;;;;;;;10.99;61.34;101412.22;4959629;28;20451;-82
2023/02/23 11:27:36;;;;;;;6.88;2.50;;;;;;;10.52;62.56;101398.72;4975459;28;20085;-85
2023/02/23 11:30:05;;;;;;;8.18;3.08;;;;;;;10.65;62.35;101400.25;4966754;28;20045;-81
2023/02/23 11:32:37;;;;;;;6.93;2.53;;;;;;;11.07;61.53;101422.25;4952052;28;20045;-85
2023/02/23 11:35:27;;;;;;;9.85;2.60;;;;;;;10.74;61.97;101412.84;4958218;28;20038;-87
2023/02/23 11:37:54;;;;;;;7.57;2.67;;;;;;;11.05;61.04;101401.88;4957671;28;20034;-82
2023/02/23 11:40:20;;;;;;;;;;;;;;;11.23;60.07;101426.19;4985782;28;20517;-83
2023/02/23 11:43:06;;;;;;;8.20;2.60;;;;;;;10.92;60.60;101411.13;4967193;28;19925;-83
2023/02/23 11:45:55;;;;;;;7.15;2.10;;;;;;;10.62;61.81;101405.94;4968390;28;20034;-83
2023/02/23 11:48:37;;;;;;;8.32;2.47;;;;;;;10.61;62.20;101420.38;4983612;28;20041;-83
2023/02/23 11:51:04;;;;;;;7.28;2.40;;;;;;;10.73;61.80;101420.06;4993836;28;20063;-81
2023/02/23 11:53:39;;;;;;;6.70;2.45;;;;;;;10.77;61.89;101431.41;4979254;28;20485;-83
2023/02/23 11:56:11;;;;;;;6.22;2.33;;;;;;;10.70;61.98;101417.69;5004705;28;20034;-82
2023/02/23 11:58:43;;;;;;;7.55;2.38;;;;;;;10.71;61.75;101411.28;4975317;28;20126;-85
2023/02/23 12:01:30;;;;;;;7.85;2.63;;;;;;;11.07;61.49;101422.25;4986165;28;20073;-83
2023/02/23 12:03:56;;;;;;;6.97;2.47;;;;;;;11.09;61.01;101417.59;4972449;28;20073;-87
2023/02/23 12:06:38;;;;;;;9.45;2.67;;;;;;;10.97;61.30;101424.97;4990195;28;20084;-84
2023/02/23 12:09:24;;;;;;;7.00;2.38;;;;;;;10.90;61.32;101417.63;4966949;28;20508;-85
2023/02/23 12:12:04;;;;;;;12.82;2.42;;;;;;;10.56;61.95;101420.81;5009635;28;20034;-85
2023/02/23 12:14:37;;;;;;;5.78;2.03;;;;;;;10.50;62.71;101418.69;5002266;28;20023;-85
2023/02/23 12:17:15;;;;;;;5.53;2.42;;;;;;;10.34;63.17;101413.84;4973921;28;20046;-83
2023/02/23 12:19:53;;;;;;;8.77;2.55;;;;;;;10.15;63.81;101420.03;4988953;28;20034;-86
2023/02/23 12:22:21;;;;;;;7.90;2.30;;;;;;;10.26;63.63;101417.22;5001531;28;20034;-84
2023/02/23 12:25:01;;;;;;;9.07;2.70;;;;;;;10.18;64.33;101435.88;4956698;28;20423;-85
2023/02/23 12:28:08;;;;;;;7.70;2.67;;;;;;;10.29;63.96;101433.09;4966777;28;20045;-84
2023/02/23 12:30:36;;;;;;;9.15;2.80;;;;;;;10.45;63.52;101440.59;4972148;28;21773;-85
2023/02/23 12:33:32;;;;;;;6.75;2.70;;;;;;;10.29;63.60;101422.34;4996660;28;20082;-85
2023/02/23 12:36:25;;;;;;;8.90;2.60;;;;;;;10.09;64.19;101445.63;4974814;28;20038;-85
2023/02/23 12:39:00;;;;;;;9.98;2.92;;;;;;;9.99;64.62;101419.72;4970486;28;20378;-84
2023/02/23 12:41:55;;;;;;;10.23;3.00;;;;;;;9.84;65.77;101443.47;4969755;28;20045;-84
2023/02/23 12:44:39;;;;;;;9.15;2.80;;;;;;;10.11;65.11;101448.16;4983320;28;20030;-85
2023/02/23 12:47:30;;;;;;;8.95;2.60;;;;;;;9.63;66.47;101440.84;4979374;28;20031;-85
2023/02/23 12:50:10;;;;;;;8.35;3.25;;;;;;;9.62;67.08;101444.50;4938150;28;20046;-84
2023/02/23 12:52:36;;;;;;;16.02;5.82;;;;;;;9.39;67.73;101444.69;4949486;28;20501;-86
2023/02/23 12:55:04;;;;;;;6.88;2.42;;;;;;;9.41;67.20;101448.09;4971427;28;20034;-86
2023/02/23 12:57:43;;;;;;;4.38;2.10;;;;;;;9.37;67.64;101457.41;4969602;28;20479;-85
2023/02/23 13:00:29;;;;;;;6.70;2.53;;;;;;;9.34;67.77;101430.84;4987460;28;20044;-84
2023/02/23 13:03:28;;;;;;;10.50;2.55;;;;;;;9.63;67.01;101451.59;4979763;28;20038;-85
2023/02/23 13:06:10;;;;;;;7.05;2.30;;;;;;;9.56;66.86;101443.22;4975729;28;20062;-85
2023/02/23 13:08:42;;;;;;;4.70;2.03;;;;;;;9.48;66.98;101449.25;4960619;28;20061;-85
2023/02/23 13:11:41;;;;;;;10.02;2.42;;;;;;;9.45;66.99;101451.34;4977283;28;20047;-89
2023/02/23 13:14:31;;;;;;;5.05;2.10;;;;;;;9.32;66.93;101432.81;4961366;28;20046;-89